ASA193 KLAX-PANC
Flight info
| Callsign | ASA193 |
|---|---|
| Flight time | 5h 2m |
| Altitude | 34000 |
| Route | SUMMR2 SCTRR PYE J143 ENI FOT KYLLE B453 NAKBI/N0451F360 B453 MDO YESKA6 |
| Aircraft | B738/M-SDE2E3FGHIRWXY/LB1 |
Departure
| Time | 2026-04-21 16:20 |
|---|---|
| Airport | Los Angeles International Airport (KLAX) |
Arrival
| Time | 2026-04-21 21:23 |
|---|---|
| Airport | Ted Stevens Anchorage International Airport (PANC) |
| Time | Latitude | Longitude | Altitude | Speed | Heading |
|---|---|---|---|---|---|
| 2026-04-21 15:55 | 33.94044 | -118.40254 | 125 ft | 0 kts | 84° |
| 2026-04-21 16:08 | 33.94041 | -118.40291 | 121 ft | 2 kts | 84° |
| 2026-04-21 16:08 | 33.94047 | -118.40308 | 122 ft | 2 kts | 158° |
| 2026-04-21 16:08 | 33.94057 | -118.40312 | 121 ft | 0 kts | 175° |
| 2026-04-21 16:12 | 33.94048 | -118.40311 | 122 ft | 5 kts | 176° |
| 2026-04-21 16:12 | 33.94002 | -118.40306 | 122 ft | 7 kts | 173° |
| 2026-04-21 16:12 | 33.93956 | -118.40299 | 122 ft | 7 kts | 173° |
| 2026-04-21 16:13 | 33.93938 | -118.40295 | 122 ft | 0 kts | 154° |
| 2026-04-21 16:13 | 33.93937 | -118.40295 | 122 ft | 1 kts | 159° |
| 2026-04-21 16:13 | 33.93924 | -118.40294 | 122 ft | 5 kts | 174° |
| 2026-04-21 16:13 | 33.93885 | -118.40289 | 123 ft | 6 kts | 173° |
| 2026-04-21 16:14 | 33.93854 | -118.40260 | 124 ft | 6 kts | 105° |
| 2026-04-21 16:14 | 33.93858 | -118.40206 | 123 ft | 7 kts | 84° |
| 2026-04-21 16:14 | 33.93864 | -118.40144 | 121 ft | 7 kts | 83° |
| 2026-04-21 16:14 | 33.93870 | -118.40082 | 122 ft | 8 kts | 83° |
| 2026-04-21 16:15 | 33.93879 | -118.39991 | 125 ft | 14 kts | 83° |
| 2026-04-21 16:15 | 33.93891 | -118.39878 | 125 ft | 13 kts | 83° |
| 2026-04-21 16:15 | 33.93902 | -118.39770 | 125 ft | 13 kts | 83° |
| 2026-04-21 16:15 | 33.93915 | -118.39641 | 125 ft | 18 kts | 83° |
| 2026-04-21 16:16 | 33.93930 | -118.39489 | 125 ft | 19 kts | 83° |
| 2026-04-21 16:16 | 33.93946 | -118.39337 | 125 ft | 18 kts | 83° |
| 2026-04-21 16:16 | 33.93962 | -118.39189 | 125 ft | 17 kts | 83° |
| 2026-04-21 16:16 | 33.93976 | -118.39048 | 125 ft | 17 kts | 83° |
| 2026-04-21 16:17 | 33.93990 | -118.38911 | 125 ft | 16 kts | 83° |
| 2026-04-21 16:17 | 33.94004 | -118.38779 | 125 ft | 16 kts | 83° |
| 2026-04-21 16:17 | 33.94016 | -118.38653 | 123 ft | 15 kts | 83° |
| 2026-04-21 16:17 | 33.94029 | -118.38532 | 125 ft | 14 kts | 83° |
| 2026-04-21 16:18 | 33.94041 | -118.38416 | 120 ft | 14 kts | 83° |
| 2026-04-21 16:18 | 33.94052 | -118.38305 | 125 ft | 13 kts | 83° |
| 2026-04-21 16:18 | 33.94063 | -118.38198 | 125 ft | 13 kts | 83° |
| 2026-04-21 16:18 | 33.94074 | -118.38089 | 125 ft | 13 kts | 83° |
| 2026-04-21 16:19 | 33.94054 | -118.38003 | 125 ft | 10 kts | 162° |
| 2026-04-21 16:19 | 33.93995 | -118.37994 | 123 ft | 0 kts | 187° |
| 2026-04-21 16:19 | 33.93992 | -118.37995 | 123 ft | 3 kts | 199° |
| 2026-04-21 16:19 | 33.93980 | -118.38069 | 123 ft | 30 kts | 262° |
| 2026-04-21 16:20 | 33.93924 | -118.38603 | 121 ft | 97 kts | 263° |
| 2026-04-21 16:20 | 33.93817 | -118.39657 | 124 ft | 154 kts | 263° |
| 2026-04-21 16:20 | 33.93659 | -118.41048 | 491 ft | 172 kts | 262° |
| 2026-04-21 16:20 | 33.93518 | -118.42537 | 1100 ft | 182 kts | 262° |
| 2026-04-21 16:21 | 33.93353 | -118.44174 | 1435 ft | 211 kts | 262° |
| 2026-04-21 16:21 | 33.93170 | -118.46010 | 1775 ft | 227 kts | 262° |
| 2026-04-21 16:21 | 33.93004 | -118.47929 | 2333 ft | 234 kts | 263° |
| 2026-04-21 16:21 | 33.92834 | -118.49979 | 2685 ft | 256 kts | 263° |
| 2026-04-21 16:22 | 33.92657 | -118.52141 | 3474 ft | 263 kts | 263° |
| 2026-04-21 16:22 | 33.92482 | -118.54298 | 4595 ft | 256 kts | 263° |
| 2026-04-21 16:22 | 33.92305 | -118.56452 | 5488 ft | 260 kts | 263° |
| 2026-04-21 16:22 | 33.92125 | -118.58625 | 6390 ft | 261 kts | 263° |
| 2026-04-21 16:23 | 33.91944 | -118.60803 | 7170 ft | 262 kts | 262° |
| 2026-04-21 16:23 | 33.91768 | -118.62999 | 7841 ft | 266 kts | 263° |
| 2026-04-21 16:23 | 33.91713 | -118.65242 | 8553 ft | 271 kts | 266° |
| 2026-04-21 16:23 | 33.91717 | -118.67513 | 9448 ft | 271 kts | 266° |
| 2026-04-21 16:24 | 33.91726 | -118.69794 | 10257 ft | 275 kts | 266° |
| 2026-04-21 16:24 | 33.91729 | -118.72136 | 10550 ft | 294 kts | 266° |
| 2026-04-21 16:24 | 33.91724 | -118.74693 | 10703 ft | 315 kts | 266° |
| 2026-04-21 16:24 | 33.91715 | -118.77417 | 10877 ft | 335 kts | 266° |
| 2026-04-21 16:25 | 33.91704 | -118.80303 | 11305 ft | 345 kts | 266° |
| 2026-04-21 16:25 | 33.91693 | -118.83165 | 11871 ft | 347 kts | 266° |
| 2026-04-21 16:25 | 33.91739 | -118.86093 | 12398 ft | 352 kts | 268° |
| 2026-04-21 16:25 | 33.91843 | -118.89044 | 13093 ft | 353 kts | 268° |
| 2026-04-21 16:26 | 33.91948 | -118.92003 | 13759 ft | 355 kts | 267° |
| 2026-04-21 16:26 | 33.92043 | -118.94981 | 14315 ft | 358 kts | 267° |
| 2026-04-21 16:26 | 33.92146 | -118.97985 | 14866 ft | 361 kts | 270° |
| 2026-04-21 16:26 | 33.92600 | -119.00993 | 15424 ft | 369 kts | 280° |
| 2026-04-21 16:27 | 33.93458 | -119.03928 | 15977 ft | 377 kts | 288° |
| 2026-04-21 16:27 | 33.94659 | -119.06564 | 16461 ft | 385 kts | 296° |
| 2026-04-21 16:27 | 33.95981 | -119.09054 | 16898 ft | 389 kts | 297° |
| 2026-04-21 16:27 | 33.97451 | -119.11805 | 17394 ft | 392 kts | 296° |
| 2026-04-21 16:28 | 33.98913 | -119.14592 | 17889 ft | 395 kts | 296° |
| 2026-04-21 16:28 | 34.00466 | -119.17353 | 18368 ft | 403 kts | 302° |
| 2026-04-21 16:28 | 34.02398 | -119.19857 | 18777 ft | 413 kts | 312° |
| 2026-04-21 16:28 | 34.04687 | -119.21998 | 19234 ft | 419 kts | 318° |
| 2026-04-21 16:29 | 34.07078 | -119.24029 | 19666 ft | 422 kts | 319° |
| 2026-04-21 16:29 | 34.09501 | -119.26055 | 20077 ft | 425 kts | 319° |
| 2026-04-21 16:29 | 34.11933 | -119.28094 | 20494 ft | 427 kts | 319° |
| 2026-04-21 16:29 | 34.14374 | -119.30159 | 20936 ft | 429 kts | 318° |
| 2026-04-21 16:30 | 34.16814 | -119.32242 | 21367 ft | 431 kts | 318° |
| 2026-04-21 16:30 | 34.19259 | -119.34343 | 21777 ft | 433 kts | 318° |
| 2026-04-21 16:30 | 34.21719 | -119.36463 | 22175 ft | 435 kts | 318° |
| 2026-04-21 16:30 | 34.24190 | -119.38598 | 22576 ft | 438 kts | 318° |
| 2026-04-21 16:31 | 34.26670 | -119.40742 | 22939 ft | 440 kts | 318° |
| 2026-04-21 16:31 | 34.29165 | -119.42901 | 23305 ft | 442 kts | 318° |
| 2026-04-21 16:31 | 34.31671 | -119.45070 | 23669 ft | 444 kts | 318° |
| 2026-04-21 16:31 | 34.34191 | -119.47251 | 23958 ft | 446 kts | 317° |
| 2026-04-21 16:32 | 34.36721 | -119.49443 | 24259 ft | 448 kts | 318° |
| 2026-04-21 16:32 | 34.39267 | -119.51650 | 24570 ft | 450 kts | 318° |
| 2026-04-21 16:32 | 34.41811 | -119.53864 | 24871 ft | 452 kts | 317° |
| 2026-04-21 16:32 | 34.44327 | -119.56155 | 25149 ft | 453 kts | 316° |
| 2026-04-21 16:33 | 34.46816 | -119.58503 | 25462 ft | 454 kts | 315° |
| 2026-04-21 16:33 | 34.49297 | -119.60874 | 25791 ft | 455 kts | 315° |
| 2026-04-21 16:33 | 34.51787 | -119.63256 | 26049 ft | 457 kts | 315° |
| 2026-04-21 16:33 | 34.54294 | -119.65647 | 26287 ft | 461 kts | 315° |
| 2026-04-21 16:34 | 34.56822 | -119.68051 | 26579 ft | 462 kts | 315° |
| 2026-04-21 16:34 | 34.59359 | -119.70455 | 26887 ft | 463 kts | 316° |
| 2026-04-21 16:34 | 34.61905 | -119.72864 | 27155 ft | 465 kts | 316° |
| 2026-04-21 16:34 | 34.64464 | -119.75286 | 27412 ft | 467 kts | 316° |
| 2026-04-21 16:35 | 34.67029 | -119.77716 | 27611 ft | 469 kts | 316° |
| 2026-04-21 16:35 | 34.69609 | -119.80160 | 27883 ft | 470 kts | 316° |
| 2026-04-21 16:35 | 34.72194 | -119.82612 | 28162 ft | 472 kts | 316° |
| 2026-04-21 16:35 | 34.74784 | -119.85070 | 28413 ft | 474 kts | 316° |
| 2026-04-21 16:36 | 34.77348 | -119.87508 | 28602 ft | 476 kts | 316° |
| 2026-04-21 16:36 | 34.79957 | -119.89991 | 28914 ft | 476 kts | 316° |
| 2026-04-21 16:36 | 34.82551 | -119.92456 | 29385 ft | 471 kts | 316° |
| 2026-04-21 16:36 | 34.85129 | -119.94909 | 29726 ft | 470 kts | 316° |
| 2026-04-21 16:37 | 34.87708 | -119.97369 | 29958 ft | 472 kts | 316° |
| 2026-04-21 16:37 | 34.90293 | -119.99838 | 30226 ft | 472 kts | 316° |
| 2026-04-21 16:37 | 34.91778 | -120.01255 | 30407 ft | 471 kts | 316° |
| 2026-04-21 16:37 | 34.94349 | -120.03711 | 30734 ft | 469 kts | 315° |
| 2026-04-21 16:38 | 34.96914 | -120.06162 | 31059 ft | 467 kts | 315° |
| 2026-04-21 16:38 | 34.99466 | -120.08605 | 31335 ft | 467 kts | 315° |
| 2026-04-21 16:38 | 35.02021 | -120.11054 | 31587 ft | 467 kts | 315° |
| 2026-04-21 16:38 | 35.04572 | -120.13501 | 31857 ft | 466 kts | 315° |
| 2026-04-21 16:39 | 35.07116 | -120.15943 | 32149 ft | 465 kts | 316° |
| 2026-04-21 16:39 | 35.09658 | -120.18385 | 32444 ft | 464 kts | 315° |
| 2026-04-21 16:39 | 35.12192 | -120.20820 | 32695 ft | 463 kts | 315° |
| 2026-04-21 16:39 | 35.14719 | -120.23251 | 32930 ft | 463 kts | 315° |
| 2026-04-21 16:40 | 35.17190 | -120.25629 | 33135 ft | 463 kts | 316° |
| 2026-04-21 16:40 | 35.19742 | -120.28029 | 33368 ft | 463 kts | 317° |
| 2026-04-21 16:40 | 35.22324 | -120.30389 | 33638 ft | 463 kts | 317° |
| 2026-04-21 16:40 | 35.24914 | -120.32732 | 33899 ft | 463 kts | 317° |
| 2026-04-21 16:41 | 35.26629 | -120.34282 | 34022 ft | 462 kts | 317° |
| 2026-04-21 16:41 | 35.32690 | -120.39800 | 34046 ft | 466 kts | 317° |
| 2026-04-21 16:42 | 35.37870 | -120.44547 | 34052 ft | 464 kts | 317° |
| 2026-04-21 16:42 | 35.43022 | -120.49281 | 34040 ft | 462 kts | 317° |
| 2026-04-21 16:43 | 35.48148 | -120.54001 | 34056 ft | 460 kts | 317° |
| 2026-04-21 16:43 | 35.53260 | -120.58711 | 34079 ft | 459 kts | 317° |
| 2026-04-21 16:44 | 35.58329 | -120.63149 | 34083 ft | 462 kts | 319° |
| 2026-04-21 16:44 | 35.63649 | -120.67674 | 34199 ft | 468 kts | 320° |
| 2026-04-21 16:44 | 35.66329 | -120.69960 | 34302 ft | 470 kts | 320° |
| 2026-04-21 16:45 | 35.69012 | -120.72257 | 34472 ft | 469 kts | 320° |
| 2026-04-21 16:45 | 35.71649 | -120.74523 | 34686 ft | 468 kts | 319° |
| 2026-04-21 16:45 | 35.74308 | -120.76815 | 34883 ft | 467 kts | 319° |
| 2026-04-21 16:45 | 35.76966 | -120.79114 | 35028 ft | 467 kts | 319° |
| 2026-04-21 16:46 | 35.79623 | -120.81415 | 35174 ft | 467 kts | 319° |
| 2026-04-21 16:46 | 35.82279 | -120.83718 | 35351 ft | 466 kts | 319° |
| 2026-04-21 16:46 | 35.84928 | -120.86017 | 35512 ft | 466 kts | 319° |
| 2026-04-21 16:46 | 35.87552 | -120.88296 | 35646 ft | 466 kts | 319° |
| 2026-04-21 16:47 | 35.90200 | -120.90597 | 35779 ft | 466 kts | 319° |
| 2026-04-21 16:47 | 35.92848 | -120.92899 | 35945 ft | 465 kts | 319° |
| 2026-04-21 16:47 | 35.94942 | -120.94721 | 36025 ft | 465 kts | 319° |
| 2026-04-21 16:48 | 36.00246 | -120.99345 | 36033 ft | 467 kts | 319° |
| 2026-04-21 16:48 | 36.05491 | -121.03921 | 36035 ft | 466 kts | 319° |
| 2026-04-21 16:49 | 36.10777 | -121.08541 | 36027 ft | 465 kts | 319° |
| 2026-04-21 16:49 | 36.16054 | -121.13161 | 36029 ft | 464 kts | 319° |
| 2026-04-21 16:50 | 36.21321 | -121.17781 | 36022 ft | 464 kts | 319° |
| 2026-04-21 16:50 | 36.26585 | -121.22407 | 36030 ft | 464 kts | 319° |
| 2026-04-21 16:51 | 36.31809 | -121.27005 | 36013 ft | 464 kts | 319° |
| 2026-04-21 16:51 | 36.36848 | -121.31447 | 36037 ft | 464 kts | 319° |
| 2026-04-21 16:52 | 36.42151 | -121.36130 | 36014 ft | 465 kts | 319° |
| 2026-04-21 16:52 | 36.46535 | -121.40007 | 36030 ft | 466 kts | 319° |
| 2026-04-21 16:53 | 36.52680 | -121.45452 | 36010 ft | 467 kts | 319° |
| 2026-04-21 16:53 | 36.57082 | -121.49357 | 36036 ft | 468 kts | 319° |
| 2026-04-21 16:54 | 36.60314 | -121.52229 | 36003 ft | 469 kts | 319° |
| 2026-04-21 16:54 | 36.62699 | -121.54350 | 36010 ft | 469 kts | 319° |
| 2026-04-21 16:55 | 36.65356 | -121.56714 | 36026 ft | 469 kts | 319° |
| 2026-04-21 16:55 | 36.68674 | -121.59713 | 36020 ft | 469 kts | 318° |
| 2026-04-21 16:56 | 36.72775 | -121.63385 | 36008 ft | 470 kts | 319° |
| 2026-04-21 16:56 | 36.78102 | -121.68111 | 36030 ft | 470 kts | 319° |
| 2026-04-21 16:57 | 36.82565 | -121.72086 | 36023 ft | 470 kts | 319° |
| 2026-04-21 16:57 | 36.87841 | -121.76807 | 36032 ft | 470 kts | 319° |
| 2026-04-21 16:58 | 36.93149 | -121.81572 | 36040 ft | 470 kts | 318° |
| 2026-04-21 16:58 | 36.98452 | -121.86343 | 36037 ft | 469 kts | 318° |
| 2026-04-21 16:59 | 37.03457 | -121.90852 | 36025 ft | 469 kts | 318° |
| 2026-04-21 16:59 | 37.08744 | -121.95624 | 36014 ft | 468 kts | 318° |
| 2026-04-21 17:00 | 37.14028 | -122.00400 | 36011 ft | 468 kts | 318° |
| 2026-04-21 17:00 | 37.18410 | -122.04369 | 35991 ft | 468 kts | 318° |
| 2026-04-21 17:01 | 37.24583 | -122.09969 | 36002 ft | 469 kts | 318° |
| 2026-04-21 17:01 | 37.27935 | -122.13017 | 35979 ft | 468 kts | 317° |
| 2026-04-21 17:02 | 37.33204 | -122.17814 | 36018 ft | 468 kts | 317° |
| 2026-04-21 17:02 | 37.38475 | -122.22613 | 35995 ft | 467 kts | 317° |
| 2026-04-21 17:03 | 37.43710 | -122.27389 | 36001 ft | 463 kts | 317° |
| 2026-04-21 17:03 | 37.48911 | -122.32145 | 36007 ft | 461 kts | 317° |
| 2026-04-21 17:04 | 37.54099 | -122.36901 | 35987 ft | 461 kts | 317° |
| 2026-04-21 17:04 | 37.59285 | -122.41663 | 35987 ft | 462 kts | 317° |
| 2026-04-21 17:05 | 37.64475 | -122.46436 | 36002 ft | 462 kts | 317° |
| 2026-04-21 17:05 | 37.69684 | -122.51236 | 36006 ft | 465 kts | 317° |
| 2026-04-21 17:06 | 37.74920 | -122.56070 | 36006 ft | 468 kts | 316° |
| 2026-04-21 17:06 | 37.80191 | -122.60943 | 35995 ft | 470 kts | 316° |
| 2026-04-21 17:07 | 37.85447 | -122.65810 | 35991 ft | 472 kts | 316° |
| 2026-04-21 17:07 | 37.90753 | -122.70733 | 35990 ft | 474 kts | 316° |
| 2026-04-21 17:08 | 37.96076 | -122.75680 | 35995 ft | 475 kts | 316° |
| 2026-04-21 17:08 | 38.01353 | -122.80594 | 35988 ft | 476 kts | 316° |
| 2026-04-21 17:09 | 38.09430 | -122.87407 | 35989 ft | 487 kts | 329° |
| 2026-04-21 17:09 | 38.15844 | -122.90238 | 35989 ft | 492 kts | 336° |
| 2026-04-21 17:10 | 38.22392 | -122.92807 | 35978 ft | 492 kts | 336° |
| 2026-04-21 17:10 | 38.28913 | -122.95428 | 35964 ft | 490 kts | 336° |
| 2026-04-21 17:11 | 38.35384 | -122.98095 | 35980 ft | 488 kts | 335° |
| 2026-04-21 17:11 | 38.41837 | -123.00779 | 35973 ft | 487 kts | 335° |
| 2026-04-21 17:12 | 38.48266 | -123.03458 | 35978 ft | 486 kts | 335° |
| 2026-04-21 17:12 | 38.54694 | -123.06137 | 35983 ft | 485 kts | 335° |
| 2026-04-21 17:13 | 38.61117 | -123.08818 | 35986 ft | 486 kts | 335° |
| 2026-04-21 17:13 | 38.67531 | -123.11501 | 35967 ft | 487 kts | 335° |
| 2026-04-21 17:14 | 38.74008 | -123.14215 | 35962 ft | 489 kts | 335° |
| 2026-04-21 17:14 | 38.80474 | -123.16929 | 35964 ft | 490 kts | 335° |
| 2026-04-21 17:15 | 38.86963 | -123.19659 | 35963 ft | 492 kts | 335° |
| 2026-04-21 17:15 | 38.93483 | -123.22406 | 35977 ft | 494 kts | 335° |
| 2026-04-21 17:16 | 39.00027 | -123.25169 | 35998 ft | 496 kts | 335° |
| 2026-04-21 17:16 | 39.06573 | -123.28015 | 35973 ft | 494 kts | 331° |
| 2026-04-21 17:17 | 39.12834 | -123.31532 | 35983 ft | 490 kts | 328° |
| 2026-04-21 17:17 | 39.19007 | -123.35252 | 35949 ft | 489 kts | 328° |
| 2026-04-21 17:18 | 39.25173 | -123.38923 | 35964 ft | 488 kts | 328° |
| 2026-04-21 17:18 | 39.31365 | -123.42553 | 35975 ft | 490 kts | 328° |
| 2026-04-21 17:19 | 39.37584 | -123.46182 | 35960 ft | 491 kts | 329° |
| 2026-04-21 17:19 | 39.43706 | -123.49758 | 35975 ft | 489 kts | 328° |
| 2026-04-21 17:20 | 39.49903 | -123.53390 | 35964 ft | 489 kts | 329° |
| 2026-04-21 17:20 | 39.56106 | -123.57036 | 35986 ft | 491 kts | 328° |
| 2026-04-21 17:21 | 39.62329 | -123.60701 | 35965 ft | 491 kts | 329° |
| 2026-04-21 17:21 | 39.68554 | -123.64372 | 35962 ft | 492 kts | 329° |
| 2026-04-21 17:22 | 39.74788 | -123.68056 | 35963 ft | 492 kts | 329° |
| 2026-04-21 17:22 | 39.77902 | -123.69905 | 36352 ft | 492 kts | 332° |
| 2026-04-21 17:22 | 39.81009 | -123.71750 | 36161 ft | 490 kts | 332° |
| 2026-04-21 17:23 | 39.86704 | -123.75122 | 36011 ft | 482 kts | 332° |
| 2026-04-21 17:23 | 39.92223 | -123.78398 | 35949 ft | 480 kts | 332° |
| 2026-04-21 17:24 | 39.98284 | -123.82007 | 35956 ft | 480 kts | 332° |
| 2026-04-21 17:24 | 40.04348 | -123.85628 | 35958 ft | 485 kts | 332° |
| 2026-04-21 17:25 | 40.10393 | -123.89244 | 35952 ft | 489 kts | 332° |
| 2026-04-21 17:25 | 40.16598 | -123.92961 | 35956 ft | 492 kts | 332° |
| 2026-04-21 17:26 | 40.22835 | -123.96704 | 35955 ft | 493 kts | 333° |
| 2026-04-21 17:26 | 40.29025 | -124.00425 | 35935 ft | 485 kts | 332° |
| 2026-04-21 17:27 | 40.35129 | -124.04103 | 35949 ft | 482 kts | 332° |
| 2026-04-21 17:27 | 40.41218 | -124.07782 | 35950 ft | 481 kts | 332° |
| 2026-04-21 17:28 | 40.47294 | -124.11460 | 35946 ft | 481 kts | 332° |
| 2026-04-21 17:28 | 40.53372 | -124.15146 | 35952 ft | 481 kts | 333° |
| 2026-04-21 17:29 | 40.59464 | -124.18848 | 35945 ft | 483 kts | 333° |
| 2026-04-21 17:29 | 40.65568 | -124.22564 | 35949 ft | 484 kts | 333° |
| 2026-04-21 17:30 | 40.71444 | -124.26835 | 35955 ft | 482 kts | 325° |
| 2026-04-21 17:30 | 40.77087 | -124.31627 | 35943 ft | 483 kts | 324° |
| 2026-04-21 17:31 | 40.82288 | -124.36085 | 35954 ft | 484 kts | 324° |
| 2026-04-21 17:31 | 40.87966 | -124.40886 | 35945 ft | 485 kts | 325° |
| 2026-04-21 17:32 | 40.93672 | -124.45670 | 35951 ft | 486 kts | 325° |
| 2026-04-21 17:32 | 40.99381 | -124.50454 | 35952 ft | 486 kts | 325° |
| 2026-04-21 17:33 | 41.05087 | -124.55247 | 35951 ft | 486 kts | 325° |
| 2026-04-21 17:33 | 41.10799 | -124.60058 | 35953 ft | 486 kts | 325° |
| 2026-04-21 17:34 | 41.16500 | -124.64872 | 35944 ft | 485 kts | 325° |
| 2026-04-21 17:34 | 41.22189 | -124.69685 | 35942 ft | 484 kts | 325° |
| 2026-04-21 17:35 | 41.27855 | -124.74489 | 35944 ft | 482 kts | 325° |
| 2026-04-21 17:35 | 41.33460 | -124.79251 | 35944 ft | 481 kts | 325° |
| 2026-04-21 17:36 | 41.39086 | -124.84041 | 35945 ft | 480 kts | 325° |
| 2026-04-21 17:36 | 41.44737 | -124.88862 | 35948 ft | 479 kts | 325° |
| 2026-04-21 17:37 | 41.49898 | -124.93274 | 35946 ft | 479 kts | 325° |
| 2026-04-21 17:37 | 41.55495 | -124.98069 | 35945 ft | 478 kts | 325° |
| 2026-04-21 17:38 | 41.61095 | -125.02876 | 35946 ft | 479 kts | 325° |
| 2026-04-21 17:38 | 41.66698 | -125.07695 | 35951 ft | 479 kts | 325° |
| 2026-04-21 17:39 | 41.72307 | -125.12530 | 35953 ft | 480 kts | 325° |
| 2026-04-21 17:39 | 41.77915 | -125.17375 | 35950 ft | 480 kts | 325° |
| 2026-04-21 17:40 | 41.83527 | -125.22233 | 35943 ft | 481 kts | 325° |
| 2026-04-21 17:40 | 41.89145 | -125.27106 | 35953 ft | 481 kts | 325° |
| 2026-04-21 17:41 | 41.94772 | -125.31997 | 35945 ft | 481 kts | 325° |
| 2026-04-21 17:41 | 42.00388 | -125.36890 | 35942 ft | 482 kts | 325° |
| 2026-04-21 17:42 | 42.05063 | -125.40971 | 35948 ft | 482 kts | 325° |
| 2026-04-21 17:42 | 42.10677 | -125.45881 | 35945 ft | 481 kts | 325° |
| 2026-04-21 17:43 | 42.16292 | -125.50802 | 35944 ft | 481 kts | 325° |
| 2026-04-21 17:43 | 42.21716 | -125.55566 | 35945 ft | 481 kts | 325° |
| 2026-04-21 17:44 | 42.27323 | -125.60501 | 35945 ft | 480 kts | 325° |
| 2026-04-21 17:44 | 42.32915 | -125.65434 | 35943 ft | 480 kts | 325° |
| 2026-04-21 17:45 | 42.38498 | -125.70369 | 35944 ft | 479 kts | 325° |
| 2026-04-21 17:45 | 42.44077 | -125.75312 | 35943 ft | 479 kts | 325° |
| 2026-04-21 17:46 | 42.49649 | -125.80259 | 35945 ft | 478 kts | 326° |
| 2026-04-21 17:46 | 42.55211 | -125.85207 | 35947 ft | 478 kts | 325° |
| 2026-04-21 17:47 | 42.60760 | -125.90155 | 35945 ft | 477 kts | 325° |
| 2026-04-21 17:47 | 42.66307 | -125.95112 | 35945 ft | 477 kts | 326° |
| 2026-04-21 17:48 | 42.71844 | -126.00071 | 35946 ft | 476 kts | 326° |
| 2026-04-21 17:48 | 42.77372 | -126.05032 | 35944 ft | 476 kts | 326° |
| 2026-04-21 17:49 | 42.82899 | -126.10004 | 35947 ft | 476 kts | 326° |
| 2026-04-21 17:49 | 42.88418 | -126.14978 | 35944 ft | 476 kts | 326° |
| 2026-04-21 17:50 | 42.93411 | -126.19489 | 35945 ft | 476 kts | 326° |
| 2026-04-21 17:50 | 42.98923 | -126.24478 | 35940 ft | 476 kts | 326° |
| 2026-04-21 17:51 | 43.04438 | -126.29481 | 35938 ft | 476 kts | 326° |
| 2026-04-21 17:51 | 43.09950 | -126.34492 | 35936 ft | 476 kts | 326° |
| 2026-04-21 17:52 | 43.15463 | -126.39516 | 35937 ft | 476 kts | 326° |
| 2026-04-21 17:52 | 43.20561 | -126.44171 | 35938 ft | 476 kts | 326° |
| 2026-04-21 17:53 | 43.26091 | -126.49231 | 35941 ft | 476 kts | 326° |
| 2026-04-21 17:53 | 43.31601 | -126.54285 | 35936 ft | 476 kts | 326° |
| 2026-04-21 17:54 | 43.37110 | -126.59349 | 35938 ft | 476 kts | 326° |
| 2026-04-21 17:54 | 43.42621 | -126.64424 | 35937 ft | 476 kts | 326° |
| 2026-04-21 17:55 | 43.48385 | -126.68913 | 35946 ft | 476 kts | 334° |
| 2026-04-21 17:55 | 43.54361 | -126.72846 | 35938 ft | 476 kts | 335° |
| 2026-04-21 17:56 | 43.60349 | -126.76767 | 35937 ft | 476 kts | 334° |
| 2026-04-21 17:56 | 43.66315 | -126.80757 | 35939 ft | 476 kts | 334° |
| 2026-04-21 17:57 | 43.72259 | -126.84786 | 35939 ft | 476 kts | 334° |
| 2026-04-21 17:57 | 43.78203 | -126.88834 | 35941 ft | 476 kts | 334° |
| 2026-04-21 17:58 | 43.84143 | -126.92887 | 35942 ft | 476 kts | 334° |
| 2026-04-21 17:58 | 43.90074 | -126.96941 | 35940 ft | 476 kts | 334° |
| 2026-04-21 17:59 | 43.96005 | -127.01003 | 35946 ft | 475 kts | 334° |
| 2026-04-21 17:59 | 44.01937 | -127.05074 | 35947 ft | 475 kts | 334° |
| 2026-04-21 18:00 | 44.07818 | -127.09119 | 35942 ft | 475 kts | 334° |
| 2026-04-21 18:00 | 44.13744 | -127.13205 | 35940 ft | 475 kts | 334° |
| 2026-04-21 18:01 | 44.19658 | -127.17291 | 35944 ft | 475 kts | 334° |
| 2026-04-21 18:01 | 44.25574 | -127.21388 | 35943 ft | 475 kts | 334° |
| 2026-04-21 18:02 | 44.31485 | -127.25491 | 35938 ft | 474 kts | 334° |
| 2026-04-21 18:02 | 44.37392 | -127.29600 | 35945 ft | 474 kts | 334° |
| 2026-04-21 18:03 | 44.43295 | -127.33716 | 35948 ft | 474 kts | 334° |
| 2026-04-21 18:03 | 44.49199 | -127.37842 | 35941 ft | 474 kts | 334° |
| 2026-04-21 18:04 | 44.55098 | -127.41974 | 35940 ft | 474 kts | 334° |
| 2026-04-21 18:04 | 44.61002 | -127.46119 | 35941 ft | 474 kts | 334° |
| 2026-04-21 18:05 | 44.66859 | -127.50240 | 35938 ft | 474 kts | 334° |
| 2026-04-21 18:05 | 44.72754 | -127.54397 | 35940 ft | 474 kts | 334° |
| 2026-04-21 18:06 | 44.78650 | -127.58565 | 35939 ft | 474 kts | 334° |
| 2026-04-21 18:06 | 44.84543 | -127.62740 | 35934 ft | 474 kts | 334° |
| 2026-04-21 18:07 | 44.90434 | -127.66923 | 35934 ft | 474 kts | 334° |
| 2026-04-21 18:07 | 44.96328 | -127.71118 | 35935 ft | 474 kts | 334° |
| 2026-04-21 18:08 | 45.02208 | -127.75313 | 35936 ft | 474 kts | 334° |
| 2026-04-21 18:08 | 45.08092 | -127.79521 | 35935 ft | 473 kts | 334° |
| 2026-04-21 18:09 | 45.13967 | -127.83731 | 35934 ft | 473 kts | 334° |
| 2026-04-21 18:09 | 45.19830 | -127.87944 | 35932 ft | 473 kts | 334° |
| 2026-04-21 18:10 | 45.25690 | -127.92163 | 35937 ft | 472 kts | 334° |
| 2026-04-21 18:10 | 45.31541 | -127.96386 | 35936 ft | 471 kts | 334° |
| 2026-04-21 18:11 | 45.37389 | -128.00616 | 35933 ft | 471 kts | 334° |
| 2026-04-21 18:11 | 45.43219 | -128.04844 | 35931 ft | 470 kts | 334° |
| 2026-04-21 18:12 | 45.49048 | -128.09080 | 35931 ft | 470 kts | 334° |
| 2026-04-21 18:12 | 45.54827 | -128.13290 | 35925 ft | 469 kts | 334° |
| 2026-04-21 18:13 | 45.60634 | -128.17530 | 35927 ft | 469 kts | 334° |
| 2026-04-21 18:13 | 45.66437 | -128.21778 | 35928 ft | 468 kts | 334° |
| 2026-04-21 18:14 | 45.75121 | -128.28153 | 35930 ft | 467 kts | 334° |
| 2026-04-21 18:15 | 45.80906 | -128.32412 | 35926 ft | 467 kts | 334° |
| 2026-04-21 18:15 | 45.86686 | -128.36677 | 35921 ft | 467 kts | 334° |
| 2026-04-21 18:16 | 45.92456 | -128.40945 | 35925 ft | 467 kts | 334° |
| 2026-04-21 18:16 | 45.98226 | -128.45223 | 35923 ft | 467 kts | 334° |
| 2026-04-21 18:17 | 46.03995 | -128.49510 | 35923 ft | 467 kts | 334° |
| 2026-04-21 18:17 | 46.09763 | -128.53807 | 35922 ft | 467 kts | 334° |
| 2026-04-21 18:18 | 46.15530 | -128.58113 | 35918 ft | 467 kts | 334° |
| 2026-04-21 18:18 | 46.21299 | -128.62431 | 35917 ft | 467 kts | 334° |
| 2026-04-21 18:19 | 46.27058 | -128.66752 | 35916 ft | 467 kts | 334° |
| 2026-04-21 18:19 | 46.32819 | -128.71085 | 35917 ft | 466 kts | 334° |
| 2026-04-21 18:20 | 46.38535 | -128.75394 | 35914 ft | 466 kts | 334° |
| 2026-04-21 18:20 | 46.44314 | -128.79761 | 35915 ft | 465 kts | 334° |
| 2026-04-21 18:21 | 46.50046 | -128.84103 | 35909 ft | 464 kts | 334° |
| 2026-04-21 18:21 | 46.55725 | -128.88415 | 35916 ft | 464 kts | 334° |
| 2026-04-21 18:22 | 46.61440 | -128.92765 | 35908 ft | 464 kts | 334° |
| 2026-04-21 18:22 | 46.67153 | -128.97124 | 35910 ft | 463 kts | 334° |
| 2026-04-21 18:23 | 46.72845 | -129.01477 | 35913 ft | 462 kts | 334° |
| 2026-04-21 18:23 | 46.78525 | -129.05831 | 35906 ft | 461 kts | 334° |
| 2026-04-21 18:24 | 46.84202 | -129.10194 | 35923 ft | 461 kts | 334° |
| 2026-04-21 18:24 | 46.89875 | -129.14563 | 35913 ft | 461 kts | 334° |
| 2026-04-21 18:25 | 46.95538 | -129.18936 | 35910 ft | 460 kts | 334° |
| 2026-04-21 18:25 | 47.01197 | -129.23316 | 35913 ft | 460 kts | 334° |
| 2026-04-21 18:26 | 47.06856 | -129.27706 | 35918 ft | 460 kts | 334° |
| 2026-04-21 18:26 | 47.12525 | -129.32116 | 35918 ft | 461 kts | 334° |
| 2026-04-21 18:27 | 47.18205 | -129.36544 | 35915 ft | 462 kts | 334° |
| 2026-04-21 18:27 | 47.23895 | -129.40991 | 35904 ft | 463 kts | 334° |
| 2026-04-21 18:28 | 47.29585 | -129.45450 | 35911 ft | 464 kts | 334° |
| 2026-04-21 18:28 | 47.35282 | -129.49925 | 35911 ft | 464 kts | 334° |
| 2026-04-21 18:29 | 47.40978 | -129.54409 | 35921 ft | 464 kts | 334° |
| 2026-04-21 18:29 | 47.46635 | -129.58874 | 35916 ft | 464 kts | 334° |
| 2026-04-21 18:30 | 47.52336 | -129.63386 | 35918 ft | 464 kts | 334° |
| 2026-04-21 18:30 | 47.58029 | -129.67902 | 35919 ft | 464 kts | 334° |
| 2026-04-21 18:31 | 47.63714 | -129.72423 | 35929 ft | 463 kts | 334° |
| 2026-04-21 18:31 | 47.68464 | -129.76209 | 35925 ft | 462 kts | 334° |
| 2026-04-21 18:32 | 47.74109 | -129.80713 | 35931 ft | 459 kts | 334° |
| 2026-04-21 18:32 | 47.79709 | -129.85186 | 35932 ft | 456 kts | 333° |
| 2026-04-21 18:33 | 47.85275 | -129.89643 | 35929 ft | 452 kts | 333° |
| 2026-04-21 18:33 | 47.90786 | -129.94071 | 35936 ft | 448 kts | 333° |
| 2026-04-21 18:34 | 47.96218 | -129.98445 | 35940 ft | 445 kts | 333° |
| 2026-04-21 18:34 | 48.01646 | -130.02824 | 35950 ft | 442 kts | 333° |
| 2026-04-21 18:35 | 48.07040 | -130.07188 | 35956 ft | 440 kts | 333° |
| 2026-04-21 18:35 | 48.12410 | -130.11543 | 35961 ft | 439 kts | 333° |
| 2026-04-21 18:36 | 48.17818 | -130.15936 | 35974 ft | 445 kts | 333° |
| 2026-04-21 18:36 | 48.23286 | -130.20393 | 35974 ft | 450 kts | 333° |
| 2026-04-21 18:37 | 48.28227 | -130.24427 | 35977 ft | 453 kts | 333° |
| 2026-04-21 18:37 | 48.33753 | -130.28940 | 35962 ft | 451 kts | 333° |
| 2026-04-21 18:38 | 48.39220 | -130.33421 | 35964 ft | 443 kts | 333° |
| 2026-04-21 18:38 | 48.44601 | -130.37845 | 35973 ft | 439 kts | 333° |
| 2026-04-21 18:39 | 48.49939 | -130.42239 | 35986 ft | 437 kts | 333° |
| 2026-04-21 18:39 | 48.55004 | -130.46426 | 35996 ft | 439 kts | 333° |
| 2026-04-21 18:40 | 48.60402 | -130.50891 | 36001 ft | 445 kts | 333° |
| 2026-04-21 18:40 | 48.64924 | -130.54640 | 35993 ft | 448 kts | 333° |
| 2026-04-21 18:41 | 48.71324 | -130.59963 | 35998 ft | 449 kts | 332° |
| 2026-04-21 18:41 | 48.76782 | -130.64517 | 35989 ft | 446 kts | 332° |
| 2026-04-21 18:42 | 48.82144 | -130.68999 | 35996 ft | 441 kts | 332° |
| 2026-04-21 18:42 | 48.87503 | -130.73492 | 36006 ft | 439 kts | 332° |
| 2026-04-21 18:43 | 48.92851 | -130.77983 | 36013 ft | 439 kts | 332° |
| 2026-04-21 18:43 | 48.98192 | -130.82482 | 36015 ft | 440 kts | 331° |
| 2026-04-21 18:44 | 49.03550 | -130.87012 | 36020 ft | 441 kts | 331° |
| 2026-04-21 18:44 | 49.08932 | -130.91574 | 36021 ft | 444 kts | 331° |
| 2026-04-21 18:45 | 49.14345 | -130.96174 | 36026 ft | 447 kts | 330° |
| 2026-04-21 18:45 | 49.19787 | -131.00811 | 36028 ft | 449 kts | 330° |
| 2026-04-21 18:46 | 49.25256 | -131.05482 | 36030 ft | 451 kts | 330° |
| 2026-04-21 18:46 | 49.30746 | -131.10184 | 36034 ft | 453 kts | 330° |
| 2026-04-21 18:47 | 49.36250 | -131.14910 | 36033 ft | 454 kts | 329° |
| 2026-04-21 18:47 | 49.41758 | -131.19651 | 36035 ft | 454 kts | 329° |
| 2026-04-21 18:48 | 49.47261 | -131.24400 | 36044 ft | 453 kts | 329° |
| 2026-04-21 18:48 | 49.52750 | -131.29150 | 36040 ft | 452 kts | 329° |
| 2026-04-21 18:49 | 49.58225 | -131.33893 | 36046 ft | 451 kts | 328° |
| 2026-04-21 18:49 | 49.62756 | -131.37837 | 36050 ft | 449 kts | 328° |
| 2026-04-21 18:50 | 49.69108 | -131.43379 | 36055 ft | 448 kts | 328° |
| 2026-04-21 18:50 | 49.74524 | -131.48114 | 36059 ft | 446 kts | 328° |
| 2026-04-21 18:51 | 49.79886 | -131.52812 | 36062 ft | 445 kts | 328° |
| 2026-04-21 18:51 | 49.85309 | -131.57575 | 36069 ft | 445 kts | 327° |
| 2026-04-21 18:52 | 49.90203 | -131.61895 | 36076 ft | 445 kts | 326° |
| 2026-04-21 18:52 | 49.95544 | -131.66610 | 36076 ft | 445 kts | 327° |
| 2026-04-21 18:53 | 50.00926 | -131.71373 | 36083 ft | 445 kts | 327° |
| 2026-04-21 18:53 | 50.06304 | -131.76183 | 36084 ft | 446 kts | 326° |
| 2026-04-21 18:54 | 50.11686 | -131.81014 | 36086 ft | 447 kts | 326° |
| 2026-04-21 18:54 | 50.17071 | -131.85855 | 36089 ft | 447 kts | 326° |
| 2026-04-21 18:55 | 50.21541 | -131.89917 | 36088 ft | 447 kts | 325° |
| 2026-04-21 18:55 | 50.27698 | -131.95929 | 36091 ft | 447 kts | 324° |
| 2026-04-21 18:56 | 50.32948 | -132.01144 | 36091 ft | 447 kts | 324° |
| 2026-04-21 18:56 | 50.38204 | -132.06337 | 36096 ft | 447 kts | 323° |
| 2026-04-21 18:57 | 50.43462 | -132.11530 | 36097 ft | 447 kts | 324° |
| 2026-04-21 18:57 | 50.48726 | -132.16737 | 36103 ft | 447 kts | 323° |
| 2026-04-21 18:58 | 50.53980 | -132.21946 | 36103 ft | 446 kts | 323° |
| 2026-04-21 18:58 | 50.59229 | -132.27166 | 36105 ft | 446 kts | 323° |
| 2026-04-21 18:59 | 50.64473 | -132.32391 | 36110 ft | 446 kts | 323° |
| 2026-04-21 18:59 | 50.69707 | -132.37625 | 36116 ft | 445 kts | 323° |
| 2026-04-21 19:00 | 50.74933 | -132.42864 | 36117 ft | 445 kts | 323° |
| 2026-04-21 19:00 | 50.80154 | -132.48113 | 36125 ft | 444 kts | 323° |
| 2026-04-21 19:01 | 50.85365 | -132.53364 | 36129 ft | 444 kts | 323° |
| 2026-04-21 19:01 | 50.90535 | -132.58588 | 36130 ft | 443 kts | 323° |
| 2026-04-21 19:02 | 50.95731 | -132.63852 | 36128 ft | 443 kts | 323° |
| 2026-04-21 19:02 | 51.00919 | -132.69121 | 36136 ft | 442 kts | 323° |
| 2026-04-21 19:03 | 51.06093 | -132.74397 | 36146 ft | 442 kts | 323° |
| 2026-04-21 19:03 | 51.11264 | -132.79688 | 36144 ft | 442 kts | 323° |
| 2026-04-21 19:04 | 51.16430 | -132.84987 | 36142 ft | 442 kts | 322° |
| 2026-04-21 19:04 | 51.21596 | -132.90301 | 36146 ft | 442 kts | 323° |
| 2026-04-21 19:05 | 51.26752 | -132.95619 | 36152 ft | 441 kts | 322° |
| 2026-04-21 19:05 | 51.31908 | -133.00950 | 36148 ft | 441 kts | 322° |
| 2026-04-21 19:06 | 51.37062 | -133.06294 | 36156 ft | 441 kts | 322° |
| 2026-04-21 19:06 | 51.42206 | -133.11643 | 36162 ft | 441 kts | 322° |
| 2026-04-21 19:07 | 51.47355 | -133.17011 | 36165 ft | 441 kts | 322° |
| 2026-04-21 19:07 | 51.52496 | -133.22386 | 36169 ft | 441 kts | 322° |
| 2026-04-21 19:08 | 51.57598 | -133.27734 | 36170 ft | 441 kts | 322° |
| 2026-04-21 19:08 | 51.62733 | -133.33132 | 36169 ft | 441 kts | 322° |
| 2026-04-21 19:09 | 51.67862 | -133.38539 | 36172 ft | 440 kts | 322° |
| 2026-04-21 19:09 | 51.72981 | -133.43950 | 36172 ft | 440 kts | 322° |
| 2026-04-21 19:10 | 51.78099 | -133.49375 | 36177 ft | 440 kts | 322° |
| 2026-04-21 19:10 | 51.83206 | -133.54803 | 36180 ft | 439 kts | 322° |
| 2026-04-21 19:11 | 51.88307 | -133.60239 | 36181 ft | 439 kts | 322° |
| 2026-04-21 19:11 | 51.93403 | -133.65687 | 36181 ft | 438 kts | 322° |
| 2026-04-21 19:12 | 51.97630 | -133.70215 | 36183 ft | 438 kts | 322° |
| 2026-04-21 19:12 | 52.03568 | -133.76592 | 36185 ft | 438 kts | 322° |
| 2026-04-21 19:13 | 52.08642 | -133.82055 | 36185 ft | 437 kts | 322° |
| 2026-04-21 19:13 | 52.13706 | -133.87522 | 36186 ft | 437 kts | 322° |
| 2026-04-21 19:14 | 52.18762 | -133.92997 | 36190 ft | 436 kts | 322° |
| 2026-04-21 19:14 | 52.23807 | -133.98474 | 36197 ft | 436 kts | 322° |
| 2026-04-21 19:15 | 52.28813 | -134.03926 | 36199 ft | 435 kts | 322° |
| 2026-04-21 19:15 | 52.33840 | -134.09415 | 36194 ft | 434 kts | 322° |
| 2026-04-21 19:16 | 52.38859 | -134.14911 | 36199 ft | 434 kts | 322° |
| 2026-04-21 19:16 | 52.43869 | -134.20412 | 36200 ft | 433 kts | 322° |
| 2026-04-21 19:17 | 52.51364 | -134.28670 | 36202 ft | 432 kts | 322° |
| 2026-04-21 19:17 | 52.56343 | -134.34176 | 36204 ft | 431 kts | 322° |
| 2026-04-21 19:18 | 52.61316 | -134.39689 | 36203 ft | 431 kts | 322° |
| 2026-04-21 19:18 | 52.66277 | -134.45205 | 36203 ft | 430 kts | 322° |
| 2026-04-21 19:19 | 52.71226 | -134.50723 | 36208 ft | 429 kts | 322° |
| 2026-04-21 19:19 | 52.75332 | -134.55313 | 36211 ft | 429 kts | 322° |
| 2026-04-21 19:20 | 52.80263 | -134.60840 | 36211 ft | 428 kts | 322° |
| 2026-04-21 19:20 | 52.85187 | -134.66374 | 36216 ft | 428 kts | 322° |
| 2026-04-21 19:21 | 52.90104 | -134.71915 | 36210 ft | 427 kts | 322° |
| 2026-04-21 19:21 | 52.95015 | -134.77466 | 36214 ft | 427 kts | 322° |
| 2026-04-21 19:22 | 52.99920 | -134.83023 | 36215 ft | 427 kts | 322° |
| 2026-04-21 19:22 | 53.04823 | -134.88595 | 36215 ft | 427 kts | 322° |
| 2026-04-21 19:23 | 53.09715 | -134.94171 | 36213 ft | 427 kts | 321° |
| 2026-04-21 19:23 | 53.14607 | -134.99763 | 36217 ft | 426 kts | 321° |
| 2026-04-21 19:24 | 53.19496 | -135.05366 | 36216 ft | 426 kts | 321° |
| 2026-04-21 19:24 | 53.24381 | -135.10982 | 36216 ft | 426 kts | 321° |
| 2026-04-21 19:25 | 53.29258 | -135.16605 | 36216 ft | 426 kts | 321° |
| 2026-04-21 19:25 | 53.34098 | -135.22200 | 36217 ft | 426 kts | 321° |
| 2026-04-21 19:26 | 53.38961 | -135.27839 | 36216 ft | 425 kts | 321° |
| 2026-04-21 19:26 | 53.43824 | -135.33492 | 36219 ft | 425 kts | 321° |
| 2026-04-21 19:27 | 53.48596 | -135.39056 | 36214 ft | 425 kts | 321° |
| 2026-04-21 19:27 | 53.53444 | -135.44725 | 36217 ft | 424 kts | 321° |
| 2026-04-21 19:28 | 53.58286 | -135.50402 | 36219 ft | 424 kts | 321° |
| 2026-04-21 19:28 | 53.63115 | -135.56080 | 36214 ft | 423 kts | 321° |
| 2026-04-21 19:29 | 53.67938 | -135.61769 | 36214 ft | 423 kts | 321° |
| 2026-04-21 19:29 | 53.72749 | -135.67458 | 36213 ft | 422 kts | 321° |
| 2026-04-21 19:30 | 53.77552 | -135.73155 | 36216 ft | 421 kts | 321° |
| 2026-04-21 19:30 | 53.82343 | -135.78853 | 36213 ft | 421 kts | 321° |
| 2026-04-21 19:31 | 53.87122 | -135.84554 | 36212 ft | 420 kts | 321° |
| 2026-04-21 19:31 | 53.91894 | -135.90263 | 36213 ft | 419 kts | 321° |
| 2026-04-21 19:32 | 53.96654 | -135.95972 | 36214 ft | 419 kts | 321° |
| 2026-04-21 19:32 | 54.01286 | -136.01819 | 36209 ft | 416 kts | 316° |
| 2026-04-21 19:33 | 54.05576 | -136.08373 | 36208 ft | 414 kts | 314° |
| 2026-04-21 19:33 | 54.09809 | -136.15023 | 36212 ft | 414 kts | 314° |
| 2026-04-21 19:34 | 54.14050 | -136.21660 | 36210 ft | 414 kts | 314° |
| 2026-04-21 19:34 | 54.18299 | -136.28285 | 36212 ft | 414 kts | 315° |
| 2026-04-21 19:35 | 54.24674 | -136.38229 | 36215 ft | 414 kts | 315° |
| 2026-04-21 19:36 | 54.28919 | -136.44872 | 36214 ft | 414 kts | 315° |
| 2026-04-21 19:36 | 54.33164 | -136.51533 | 36214 ft | 414 kts | 315° |
| 2026-04-21 19:37 | 54.37401 | -136.58204 | 36207 ft | 414 kts | 315° |
| 2026-04-21 19:37 | 54.41636 | -136.64891 | 36206 ft | 414 kts | 315° |
| 2026-04-21 19:38 | 54.45863 | -136.71584 | 36204 ft | 413 kts | 315° |
| 2026-04-21 19:38 | 54.50086 | -136.78290 | 36198 ft | 413 kts | 315° |
| 2026-04-21 19:39 | 54.54299 | -136.85000 | 36205 ft | 412 kts | 315° |
| 2026-04-21 19:39 | 54.58415 | -136.91575 | 36197 ft | 412 kts | 315° |
| 2026-04-21 19:40 | 54.62581 | -136.98251 | 36203 ft | 411 kts | 314° |
| 2026-04-21 19:40 | 54.66768 | -137.04978 | 36198 ft | 411 kts | 314° |
| 2026-04-21 19:41 | 54.70943 | -137.11707 | 36196 ft | 410 kts | 314° |
| 2026-04-21 19:41 | 54.75109 | -137.18440 | 36197 ft | 410 kts | 314° |
| 2026-04-21 19:42 | 54.79269 | -137.25183 | 36197 ft | 409 kts | 314° |
| 2026-04-21 19:42 | 54.83414 | -137.31924 | 36199 ft | 408 kts | 314° |
| 2026-04-21 19:43 | 54.87552 | -137.38671 | 36195 ft | 408 kts | 314° |
| 2026-04-21 19:43 | 54.91681 | -137.45424 | 36194 ft | 407 kts | 314° |
| 2026-04-21 19:44 | 54.95804 | -137.52187 | 36194 ft | 407 kts | 314° |
| 2026-04-21 19:44 | 54.99917 | -137.58954 | 36192 ft | 407 kts | 314° |
| 2026-04-21 19:45 | 55.04025 | -137.65734 | 36191 ft | 407 kts | 314° |
| 2026-04-21 19:45 | 55.08130 | -137.72527 | 36190 ft | 406 kts | 314° |
| 2026-04-21 19:46 | 55.12226 | -137.79327 | 36193 ft | 406 kts | 314° |
| 2026-04-21 19:46 | 55.16222 | -137.85980 | 36192 ft | 406 kts | 314° |
| 2026-04-21 19:47 | 55.20309 | -137.92805 | 36191 ft | 406 kts | 314° |
| 2026-04-21 19:47 | 55.24391 | -137.99641 | 36192 ft | 406 kts | 314° |
| 2026-04-21 19:48 | 55.28471 | -138.06495 | 36190 ft | 406 kts | 314° |
| 2026-04-21 19:48 | 55.32541 | -138.13352 | 36189 ft | 406 kts | 314° |
| 2026-04-21 19:49 | 55.36607 | -138.20224 | 36187 ft | 405 kts | 314° |
| 2026-04-21 19:49 | 55.40642 | -138.27062 | 36186 ft | 405 kts | 314° |
| 2026-04-21 19:50 | 55.44037 | -138.32833 | 36183 ft | 405 kts | 314° |
| 2026-04-21 19:50 | 55.48741 | -138.40852 | 36186 ft | 405 kts | 314° |
| 2026-04-21 19:51 | 55.52784 | -138.47766 | 36186 ft | 404 kts | 314° |
| 2026-04-21 19:51 | 55.56817 | -138.54685 | 36186 ft | 404 kts | 314° |
| 2026-04-21 19:52 | 55.60844 | -138.61614 | 36184 ft | 404 kts | 314° |
| 2026-04-21 19:52 | 55.64866 | -138.68556 | 36181 ft | 404 kts | 314° |
| 2026-04-21 19:53 | 55.68880 | -138.75505 | 36184 ft | 403 kts | 314° |
| 2026-04-21 19:53 | 55.72887 | -138.82463 | 36182 ft | 403 kts | 313° |
| 2026-04-21 19:54 | 55.76890 | -138.89434 | 36176 ft | 403 kts | 313° |
| 2026-04-21 19:54 | 55.80883 | -138.96411 | 36171 ft | 403 kts | 313° |
| 2026-04-21 19:55 | 55.84874 | -139.03404 | 36177 ft | 403 kts | 313° |
| 2026-04-21 19:55 | 55.88858 | -139.10407 | 36177 ft | 402 kts | 313° |
| 2026-04-21 19:56 | 55.92835 | -139.17418 | 36180 ft | 402 kts | 313° |
| 2026-04-21 19:56 | 55.96809 | -139.24445 | 36177 ft | 402 kts | 313° |
| 2026-04-21 19:57 | 56.00776 | -139.31482 | 36180 ft | 402 kts | 313° |
| 2026-04-21 19:57 | 56.04710 | -139.38482 | 36175 ft | 402 kts | 313° |
| 2026-04-21 19:58 | 56.08669 | -139.45546 | 36174 ft | 402 kts | 313° |
| 2026-04-21 19:58 | 56.12617 | -139.52615 | 36172 ft | 402 kts | 313° |
| 2026-04-21 19:59 | 56.16564 | -139.59702 | 36170 ft | 401 kts | 313° |
| 2026-04-21 19:59 | 56.20507 | -139.66804 | 36175 ft | 401 kts | 313° |
| 2026-04-21 20:00 | 56.24446 | -139.73922 | 36170 ft | 401 kts | 313° |
| 2026-04-21 20:00 | 56.28377 | -139.81048 | 36171 ft | 401 kts | 313° |
| 2026-04-21 20:01 | 56.32307 | -139.88192 | 36168 ft | 401 kts | 313° |
| 2026-04-21 20:01 | 56.36226 | -139.95340 | 36167 ft | 401 kts | 313° |
| 2026-04-21 20:02 | 56.39484 | -140.01297 | 36167 ft | 401 kts | 313° |
| 2026-04-21 20:02 | 56.44053 | -140.09681 | 36168 ft | 400 kts | 313° |
| 2026-04-21 20:03 | 56.47957 | -140.16866 | 36168 ft | 400 kts | 313° |
| 2026-04-21 20:03 | 56.51856 | -140.24066 | 36162 ft | 400 kts | 313° |
| 2026-04-21 20:04 | 56.55748 | -140.31276 | 36165 ft | 400 kts | 312° |
| 2026-04-21 20:04 | 56.59637 | -140.38502 | 36162 ft | 400 kts | 312° |
| 2026-04-21 20:05 | 56.63518 | -140.45736 | 36161 ft | 400 kts | 312° |
| 2026-04-21 20:05 | 56.67391 | -140.52980 | 36161 ft | 400 kts | 312° |
| 2026-04-21 20:06 | 56.71264 | -140.60243 | 36158 ft | 400 kts | 312° |
| 2026-04-21 20:06 | 56.75131 | -140.67521 | 36160 ft | 400 kts | 312° |
| 2026-04-21 20:07 | 56.78991 | -140.74806 | 36157 ft | 399 kts | 312° |
| 2026-04-21 20:07 | 56.82195 | -140.80871 | 36155 ft | 399 kts | 312° |
| 2026-04-21 20:08 | 56.86045 | -140.88181 | 36153 ft | 399 kts | 312° |
| 2026-04-21 20:08 | 56.89895 | -140.95514 | 36154 ft | 399 kts | 312° |
| 2026-04-21 20:09 | 56.93733 | -141.02847 | 36151 ft | 399 kts | 312° |
| 2026-04-21 20:09 | 56.97569 | -141.10199 | 36150 ft | 399 kts | 312° |
| 2026-04-21 20:10 | 57.01398 | -141.17563 | 36148 ft | 399 kts | 312° |
| 2026-04-21 20:10 | 57.05225 | -141.24946 | 36147 ft | 399 kts | 311° |
| 2026-04-21 20:11 | 57.09044 | -141.32335 | 36144 ft | 399 kts | 311° |
| 2026-04-21 20:11 | 57.12858 | -141.39740 | 36142 ft | 399 kts | 311° |
| 2026-04-21 20:12 | 57.16667 | -141.47159 | 36139 ft | 398 kts | 311° |
| 2026-04-21 20:12 | 57.20471 | -141.54592 | 36142 ft | 398 kts | 311° |
| 2026-04-21 20:13 | 57.24270 | -141.62038 | 36137 ft | 398 kts | 311° |
| 2026-04-21 20:13 | 57.28060 | -141.69490 | 36137 ft | 398 kts | 311° |
| 2026-04-21 20:14 | 57.31822 | -141.76912 | 36135 ft | 398 kts | 311° |
| 2026-04-21 20:14 | 57.35599 | -141.84388 | 36132 ft | 398 kts | 311° |
| 2026-04-21 20:15 | 57.39374 | -141.91885 | 36130 ft | 397 kts | 311° |
| 2026-04-21 20:15 | 57.43167 | -141.99439 | 36131 ft | 397 kts | 311° |
| 2026-04-21 20:16 | 57.46898 | -142.06897 | 36131 ft | 397 kts | 311° |
| 2026-04-21 20:16 | 57.50652 | -142.14424 | 36132 ft | 397 kts | 311° |
| 2026-04-21 20:17 | 57.54398 | -142.21958 | 36125 ft | 397 kts | 311° |
| 2026-04-21 20:17 | 57.58139 | -142.29508 | 36123 ft | 396 kts | 311° |
| 2026-04-21 20:18 | 57.61873 | -142.37069 | 36119 ft | 396 kts | 311° |
| 2026-04-21 20:18 | 57.65598 | -142.44634 | 36119 ft | 396 kts | 311° |
| 2026-04-21 20:19 | 57.69320 | -142.52219 | 36116 ft | 396 kts | 311° |
| 2026-04-21 20:19 | 57.73032 | -142.59811 | 36116 ft | 396 kts | 311° |
| 2026-04-21 20:20 | 57.76742 | -142.67421 | 36112 ft | 395 kts | 310° |
| 2026-04-21 20:20 | 57.80445 | -142.75042 | 36113 ft | 395 kts | 310° |
| 2026-04-21 20:21 | 57.84139 | -142.82670 | 36109 ft | 395 kts | 310° |
| 2026-04-21 20:21 | 57.87829 | -142.90313 | 36106 ft | 395 kts | 310° |
| 2026-04-21 20:22 | 57.91509 | -142.97963 | 36105 ft | 395 kts | 310° |
| 2026-04-21 20:22 | 57.97024 | -143.09473 | 36103 ft | 394 kts | 310° |
| 2026-04-21 20:23 | 58.00663 | -143.17100 | 36102 ft | 394 kts | 310° |
| 2026-04-21 20:23 | 58.04345 | -143.24843 | 36100 ft | 394 kts | 310° |
| 2026-04-21 20:24 | 58.07972 | -143.32494 | 36093 ft | 393 kts | 310° |
| 2026-04-21 20:24 | 58.11619 | -143.40212 | 36096 ft | 393 kts | 310° |
| 2026-04-21 20:25 | 58.15256 | -143.47938 | 36094 ft | 393 kts | 310° |
| 2026-04-21 20:25 | 58.18889 | -143.55678 | 36088 ft | 393 kts | 310° |
| 2026-04-21 20:26 | 58.22514 | -143.63430 | 36090 ft | 393 kts | 310° |
| 2026-04-21 20:26 | 58.26131 | -143.71188 | 36089 ft | 392 kts | 310° |
| 2026-04-21 20:27 | 58.29744 | -143.78963 | 36086 ft | 392 kts | 310° |
| 2026-04-21 20:27 | 58.33350 | -143.86751 | 36085 ft | 392 kts | 309° |
| 2026-04-21 20:28 | 58.36233 | -143.92995 | 36082 ft | 392 kts | 309° |
| 2026-04-21 20:28 | 58.39598 | -144.00305 | 36082 ft | 392 kts | 309° |
| 2026-04-21 20:29 | 58.43190 | -144.08133 | 36081 ft | 392 kts | 309° |
| 2026-04-21 20:29 | 58.46774 | -144.15971 | 36078 ft | 392 kts | 309° |
| 2026-04-21 20:30 | 58.50352 | -144.23821 | 36077 ft | 391 kts | 309° |
| 2026-04-21 20:30 | 58.53921 | -144.31679 | 36072 ft | 391 kts | 309° |
| 2026-04-21 20:31 | 58.57384 | -144.39329 | 36071 ft | 391 kts | 309° |
| 2026-04-21 20:31 | 58.60940 | -144.47210 | 36066 ft | 391 kts | 309° |
| 2026-04-21 20:32 | 58.64490 | -144.55106 | 36065 ft | 391 kts | 309° |
| 2026-04-21 20:32 | 58.68033 | -144.63012 | 36064 ft | 390 kts | 309° |
| 2026-04-21 20:33 | 58.71570 | -144.70930 | 36066 ft | 390 kts | 309° |
| 2026-04-21 20:33 | 58.75098 | -144.78856 | 36069 ft | 390 kts | 309° |
| 2026-04-21 20:34 | 58.78592 | -144.86733 | 36059 ft | 389 kts | 309° |
| 2026-04-21 20:34 | 58.82103 | -144.94676 | 36063 ft | 389 kts | 308° |
| 2026-04-21 20:35 | 58.85607 | -145.02628 | 36062 ft | 389 kts | 308° |
| 2026-04-21 20:35 | 58.89101 | -145.10586 | 36056 ft | 388 kts | 308° |
| 2026-04-21 20:36 | 58.92357 | -145.18027 | 36051 ft | 388 kts | 308° |
| 2026-04-21 20:36 | 58.95839 | -145.26010 | 36047 ft | 388 kts | 308° |
| 2026-04-21 20:37 | 58.99303 | -145.33978 | 36046 ft | 387 kts | 308° |
| 2026-04-21 20:37 | 59.02771 | -145.41985 | 36046 ft | 387 kts | 308° |
| 2026-04-21 20:38 | 59.06232 | -145.50002 | 36050 ft | 387 kts | 308° |
| 2026-04-21 20:38 | 59.09066 | -145.56586 | 36042 ft | 387 kts | 308° |
| 2026-04-21 20:39 | 59.12513 | -145.64621 | 36041 ft | 387 kts | 308° |
| 2026-04-21 20:39 | 59.15961 | -145.72686 | 36042 ft | 387 kts | 308° |
| 2026-04-21 20:40 | 59.19399 | -145.80756 | 36042 ft | 387 kts | 307° |
| 2026-04-21 20:40 | 59.22834 | -145.88847 | 36049 ft | 387 kts | 307° |
| 2026-04-21 20:41 | 59.26266 | -145.96958 | 36056 ft | 387 kts | 307° |
| 2026-04-21 20:41 | 59.29694 | -146.05090 | 36066 ft | 387 kts | 307° |
| 2026-04-21 20:42 | 59.33117 | -146.13237 | 36074 ft | 387 kts | 307° |
| 2026-04-21 20:42 | 59.36535 | -146.21400 | 36084 ft | 387 kts | 307° |
| 2026-04-21 20:43 | 59.38881 | -146.27018 | 36082 ft | 387 kts | 307° |
| 2026-04-21 20:43 | 59.42454 | -146.34944 | 36081 ft | 390 kts | 314° |
| 2026-04-21 20:44 | 59.46796 | -146.41304 | 36098 ft | 393 kts | 321° |
| 2026-04-21 20:44 | 59.51357 | -146.47283 | 36083 ft | 394 kts | 322° |
| 2026-04-21 20:45 | 59.55908 | -146.53278 | 36077 ft | 393 kts | 321° |
| 2026-04-21 20:45 | 59.60441 | -146.59316 | 36063 ft | 393 kts | 321° |
| 2026-04-21 20:46 | 59.64961 | -146.65382 | 36055 ft | 393 kts | 321° |
| 2026-04-21 20:46 | 59.69475 | -146.71468 | 36047 ft | 392 kts | 321° |
| 2026-04-21 20:47 | 59.73985 | -146.77569 | 36044 ft | 392 kts | 321° |
| 2026-04-21 20:47 | 59.76927 | -146.81561 | 36039 ft | 392 kts | 321° |
| 2026-04-21 20:48 | 59.81533 | -146.87825 | 36038 ft | 392 kts | 321° |
| 2026-04-21 20:48 | 59.84872 | -146.92381 | 36038 ft | 392 kts | 321° |
| 2026-04-21 20:49 | 59.89706 | -146.98997 | 36038 ft | 392 kts | 321° |
| 2026-04-21 20:49 | 59.94194 | -147.05159 | 36034 ft | 392 kts | 321° |
| 2026-04-21 20:50 | 59.98679 | -147.11339 | 36037 ft | 392 kts | 320° |
| 2026-04-21 20:50 | 60.03165 | -147.17540 | 36038 ft | 392 kts | 320° |
| 2026-04-21 20:51 | 60.07478 | -147.23523 | 36036 ft | 392 kts | 320° |
| 2026-04-21 20:51 | 60.11955 | -147.29753 | 36042 ft | 391 kts | 320° |
| 2026-04-21 20:52 | 60.16423 | -147.35991 | 36052 ft | 391 kts | 320° |
| 2026-04-21 20:52 | 60.20892 | -147.42253 | 36047 ft | 392 kts | 320° |
| 2026-04-21 20:53 | 60.25358 | -147.48530 | 36053 ft | 392 kts | 320° |
| 2026-04-21 20:53 | 60.29778 | -147.54765 | 36043 ft | 392 kts | 320° |
| 2026-04-21 20:54 | 60.34251 | -147.61097 | 36048 ft | 392 kts | 320° |
| 2026-04-21 20:54 | 60.38710 | -147.67428 | 36045 ft | 392 kts | 320° |
| 2026-04-21 20:55 | 60.43171 | -147.73786 | 36044 ft | 392 kts | 320° |
| 2026-04-21 20:55 | 60.47626 | -147.80158 | 36039 ft | 393 kts | 320° |
| 2026-04-21 20:56 | 60.51343 | -147.85490 | 36045 ft | 393 kts | 320° |
| 2026-04-21 20:56 | 60.53591 | -147.88724 | 35628 ft | 401 kts | 319° |
| 2026-04-21 20:56 | 60.55861 | -147.91995 | 35093 ft | 399 kts | 319° |
| 2026-04-21 20:57 | 60.58111 | -147.95238 | 34527 ft | 396 kts | 319° |
| 2026-04-21 20:57 | 60.60342 | -147.98456 | 34124 ft | 389 kts | 319° |
| 2026-04-21 20:57 | 60.62526 | -148.01610 | 33697 ft | 382 kts | 319° |
| 2026-04-21 20:57 | 60.64674 | -148.04725 | 33183 ft | 377 kts | 318° |
| 2026-04-21 20:58 | 60.66800 | -148.07814 | 32589 ft | 374 kts | 318° |
| 2026-04-21 20:58 | 60.68917 | -148.10900 | 31902 ft | 373 kts | 318° |
| 2026-04-21 20:58 | 60.70625 | -148.13393 | 31329 ft | 373 kts | 317° |
| 2026-04-21 20:58 | 60.72727 | -148.16461 | 30657 ft | 371 kts | 317° |
| 2026-04-21 20:59 | 60.74824 | -148.19525 | 30011 ft | 369 kts | 317° |
| 2026-04-21 20:59 | 60.76907 | -148.22580 | 29111 ft | 368 kts | 316° |
| 2026-04-21 20:59 | 60.78787 | -148.26074 | 28039 ft | 365 kts | 307° |
| 2026-04-21 20:59 | 60.80103 | -148.29302 | 27135 ft | 366 kts | 304° |
| 2026-04-21 21:00 | 60.81583 | -148.33566 | 26120 ft | 367 kts | 300° |
| 2026-04-21 21:00 | 60.82708 | -148.37767 | 25381 ft | 363 kts | 292° |
| 2026-04-21 21:00 | 60.83629 | -148.42549 | 24686 ft | 359 kts | 290° |
| 2026-04-21 21:00 | 60.84497 | -148.47304 | 24076 ft | 354 kts | 290° |
| 2026-04-21 21:01 | 60.85350 | -148.52009 | 23426 ft | 350 kts | 289° |
| 2026-04-21 21:01 | 60.86191 | -148.56648 | 22690 ft | 345 kts | 289° |
| 2026-04-21 21:01 | 60.87024 | -148.61213 | 22107 ft | 339 kts | 289° |
| 2026-04-21 21:01 | 60.87843 | -148.65703 | 21544 ft | 335 kts | 289° |
| 2026-04-21 21:02 | 60.88656 | -148.70164 | 20927 ft | 332 kts | 289° |
| 2026-04-21 21:02 | 60.89460 | -148.74580 | 20353 ft | 328 kts | 289° |
| 2026-04-21 21:02 | 60.90256 | -148.78951 | 19761 ft | 326 kts | 289° |
| 2026-04-21 21:02 | 60.91048 | -148.83307 | 19221 ft | 325 kts | 289° |
| 2026-04-21 21:03 | 60.91838 | -148.87667 | 18640 ft | 325 kts | 289° |
| 2026-04-21 21:03 | 60.92634 | -148.92068 | 18049 ft | 334 kts | 289° |
| 2026-04-21 21:03 | 60.93455 | -148.96613 | 17424 ft | 343 kts | 289° |
| 2026-04-21 21:03 | 60.94278 | -149.01178 | 16867 ft | 338 kts | 289° |
| 2026-04-21 21:04 | 60.95090 | -149.05698 | 16286 ft | 335 kts | 289° |
| 2026-04-21 21:04 | 60.95711 | -149.09163 | 15830 ft | 333 kts | 289° |
| 2026-04-21 21:04 | 60.96510 | -149.13620 | 15275 ft | 330 kts | 289° |
| 2026-04-21 21:04 | 60.97297 | -149.18025 | 14741 ft | 326 kts | 289° |
| 2026-04-21 21:05 | 60.98066 | -149.22340 | 14224 ft | 324 kts | 289° |
| 2026-04-21 21:05 | 60.99041 | -149.26554 | 13646 ft | 324 kts | 302° |
| 2026-04-21 21:05 | 61.00610 | -149.29908 | 13020 ft | 329 kts | 319° |
| 2026-04-21 21:05 | 61.02544 | -149.32242 | 12818 ft | 327 kts | 331° |
| 2026-04-21 21:06 | 61.04789 | -149.33515 | 12563 ft | 349 kts | 348° |
| 2026-04-21 21:06 | 61.07272 | -149.33763 | 12296 ft | 362 kts | 354° |
| 2026-04-21 21:06 | 61.09789 | -149.33742 | 12016 ft | 363 kts | 355° |
| 2026-04-21 21:06 | 61.12320 | -149.33662 | 11742 ft | 363 kts | 356° |
| 2026-04-21 21:07 | 61.14812 | -149.33587 | 11485 ft | 353 kts | 356° |
| 2026-04-21 21:07 | 61.17236 | -149.33539 | 11227 ft | 344 kts | 356° |
| 2026-04-21 21:07 | 61.19593 | -149.33515 | 10970 ft | 334 kts | 356° |
| 2026-04-21 21:07 | 61.21884 | -149.33508 | 10743 ft | 326 kts | 356° |
| 2026-04-21 21:08 | 61.24131 | -149.33510 | 10508 ft | 319 kts | 356° |
| 2026-04-21 21:08 | 61.26322 | -149.33516 | 10288 ft | 312 kts | 356° |
| 2026-04-21 21:08 | 61.28469 | -149.33522 | 10078 ft | 306 kts | 356° |
| 2026-04-21 21:08 | 61.30577 | -149.33528 | 9986 ft | 297 kts | 356° |
| 2026-04-21 21:09 | 61.32602 | -149.33532 | 9973 ft | 285 kts | 356° |
| 2026-04-21 21:09 | 61.34544 | -149.33535 | 9941 ft | 274 kts | 356° |
| 2026-04-21 21:09 | 61.36484 | -149.33547 | 9399 ft | 280 kts | 355° |
| 2026-04-21 21:09 | 61.38328 | -149.34521 | 9081 ft | 272 kts | 326° |
| 2026-04-21 21:10 | 61.39851 | -149.36761 | 8906 ft | 265 kts | 319° |
| 2026-04-21 21:10 | 61.41229 | -149.39272 | 8688 ft | 262 kts | 314° |
| 2026-04-21 21:10 | 61.42515 | -149.41927 | 8506 ft | 258 kts | 311° |
| 2026-04-21 21:10 | 61.43739 | -149.44652 | 8288 ft | 255 kts | 310° |
| 2026-04-21 21:11 | 61.44903 | -149.47433 | 8116 ft | 253 kts | 308° |
| 2026-04-21 21:11 | 61.45997 | -149.50287 | 7932 ft | 251 kts | 305° |
| 2026-04-21 21:11 | 61.47019 | -149.53238 | 7767 ft | 250 kts | 302° |
| 2026-04-21 21:11 | 61.47975 | -149.56296 | 7588 ft | 253 kts | 300° |
| 2026-04-21 21:12 | 61.48882 | -149.59465 | 7410 ft | 254 kts | 297° |
| 2026-04-21 21:12 | 61.49700 | -149.62759 | 7218 ft | 256 kts | 294° |
| 2026-04-21 21:12 | 61.50437 | -149.66168 | 7040 ft | 258 kts | 291° |
| 2026-04-21 21:12 | 61.51095 | -149.69661 | 6843 ft | 256 kts | 288° |
| 2026-04-21 21:13 | 61.51650 | -149.73052 | 6666 ft | 252 kts | 285° |
| 2026-04-21 21:13 | 61.52150 | -149.76668 | 6468 ft | 249 kts | 283° |
| 2026-04-21 21:13 | 61.52550 | -149.80193 | 6287 ft | 249 kts | 280° |
| 2026-04-21 21:13 | 61.52869 | -149.83755 | 6097 ft | 249 kts | 277° |
| 2026-04-21 21:14 | 61.53108 | -149.87344 | 5916 ft | 248 kts | 275° |
| 2026-04-21 21:14 | 61.53264 | -149.90942 | 5733 ft | 248 kts | 272° |
| 2026-04-21 21:14 | 61.53338 | -149.94540 | 5552 ft | 247 kts | 270° |
| 2026-04-21 21:14 | 61.53330 | -149.98129 | 5377 ft | 246 kts | 267° |
| 2026-04-21 21:15 | 61.53250 | -150.01487 | 5208 ft | 246 kts | 264° |
| 2026-04-21 21:15 | 61.53086 | -150.05056 | 5031 ft | 246 kts | 262° |
| 2026-04-21 21:15 | 61.52842 | -150.08608 | 4859 ft | 246 kts | 259° |
| 2026-04-21 21:15 | 61.52529 | -150.12109 | 4674 ft | 246 kts | 257° |
| 2026-04-21 21:16 | 61.51843 | -150.15360 | 4473 ft | 245 kts | 230° |
| 2026-04-21 21:16 | 61.50480 | -150.17427 | 4304 ft | 244 kts | 200° |
| 2026-04-21 21:16 | 61.48814 | -150.17851 | 4137 ft | 243 kts | 175° |
| 2026-04-21 21:16 | 61.47169 | -150.17114 | 3971 ft | 242 kts | 166° |
| 2026-04-21 21:17 | 61.45565 | -150.16051 | 3783 ft | 242 kts | 163° |
| 2026-04-21 21:17 | 61.43966 | -150.14967 | 3606 ft | 241 kts | 165° |
| 2026-04-21 21:17 | 61.42357 | -150.13998 | 3440 ft | 240 kts | 166° |
| 2026-04-21 21:17 | 61.40764 | -150.13095 | 3295 ft | 233 kts | 167° |
| 2026-04-21 21:18 | 61.39250 | -150.12247 | 3224 ft | 218 kts | 167° |
| 2026-04-21 21:18 | 61.37833 | -150.11455 | 3097 ft | 205 kts | 167° |
| 2026-04-21 21:18 | 61.36477 | -150.10697 | 2837 ft | 198 kts | 167° |
| 2026-04-21 21:18 | 61.35176 | -150.09969 | 2633 ft | 189 kts | 167° |
| 2026-04-21 21:19 | 61.33936 | -150.09275 | 2461 ft | 180 kts | 167° |
| 2026-04-21 21:19 | 61.32759 | -150.08614 | 2320 ft | 171 kts | 168° |
| 2026-04-21 21:19 | 61.31649 | -150.07993 | 2175 ft | 164 kts | 167° |
| 2026-04-21 21:19 | 61.30555 | -150.07382 | 2055 ft | 163 kts | 168° |
| 2026-04-21 21:20 | 61.29464 | -150.06771 | 1930 ft | 163 kts | 167° |
| 2026-04-21 21:20 | 61.28366 | -150.06156 | 1811 ft | 164 kts | 167° |
| 2026-04-21 21:20 | 61.27276 | -150.05545 | 1657 ft | 163 kts | 167° |
| 2026-04-21 21:20 | 61.26193 | -150.04938 | 1600 ft | 158 kts | 167° |
| 2026-04-21 21:21 | 61.25119 | -150.04336 | 1416 ft | 157 kts | 167° |
| 2026-04-21 21:21 | 61.24107 | -150.03752 | 1190 ft | 150 kts | 168° |
| 2026-04-21 21:21 | 61.23114 | -150.03202 | 869 ft | 146 kts | 167° |
| 2026-04-21 21:21 | 61.22155 | -150.02669 | 658 ft | 142 kts | 167° |
| 2026-04-21 21:22 | 61.21229 | -150.02155 | 498 ft | 135 kts | 166° |
| 2026-04-21 21:22 | 61.20318 | -150.01644 | 274 ft | 135 kts | 166° |
| 2026-04-21 21:22 | 61.19432 | -150.01154 | 154 ft | 124 kts | 167° |
| 2026-04-21 21:22 | 61.18749 | -150.00777 | 153 ft | 80 kts | 165° |
| 2026-04-21 21:23 | 61.18364 | -150.00559 | 142 ft | 35 kts | 165° |
| 2026-04-21 21:23 | 61.18151 | -150.00440 | 140 ft | 31 kts | 165° |
| 2026-04-21 21:23 | 61.17964 | -150.00320 | 140 ft | 26 kts | 152° |
| 2026-04-21 21:23 | 61.17829 | -150.00103 | 134 ft | 18 kts | 133° |
| 2026-04-21 21:24 | 61.17759 | -149.99956 | 125 ft | 18 kts | 136° |
| 2026-04-21 21:24 | 61.17672 | -149.99782 | 129 ft | 17 kts | 116° |
| 2026-04-21 21:24 | 61.17682 | -149.99594 | 123 ft | 11 kts | 75° |
| 2026-04-21 21:24 | 61.17649 | -149.99446 | 119 ft | 14 kts | 141° |
| 2026-04-21 21:25 | 61.17560 | -149.99370 | 114 ft | 12 kts | 160° |
| 2026-04-21 21:25 | 61.17483 | -149.99311 | 116 ft | 12 kts | 160° |
| 2026-04-21 21:25 | 61.17442 | -149.99179 | 108 ft | 14 kts | 77° |
| 2026-04-21 21:25 | 61.17468 | -149.99030 | 107 ft | 11 kts | 82° |
| 2026-04-21 21:26 | 61.17419 | -149.98925 | 108 ft | 11 kts | 156° |
| 2026-04-21 21:26 | 61.17358 | -149.98867 | 110 ft | 6 kts | 139° |
| 2026-04-21 21:26 | 61.17361 | -149.98779 | 111 ft | 7 kts | 72° |
| 2026-04-21 21:26 | 61.17369 | -149.98686 | 112 ft | 7 kts | 85° |
| 2026-04-21 21:27 | 61.17381 | -149.98596 | 112 ft | 7 kts | 68° |
| 2026-04-21 21:27 | 61.17394 | -149.98498 | 112 ft | 7 kts | 85° |
| 2026-04-21 21:27 | 61.17391 | -149.98393 | 113 ft | 7 kts | 98° |
| 2026-04-21 21:27 | 61.17389 | -149.98364 | 114 ft | 0 kts | 98° |